Terminal Aerodrome Forecast
Issued by NWS

Home | Current Version | Previous Version | Text Only | Print | Product List | Glossary On
Versions: 1 2 3 4 5 6 7 8 9 10 11 12 13 14 15 16 17 18 19 20 21 22 23 24 25 26 27 28 29 30 31 32 33 34 35
000
FTUS41 KBTV 250207 AAB
TAFPBG
TAF AMD
KPBG 250207Z 2502/2524 01005KT 1SM BR OVC004
      TEMPO 2502/2506 3/4SM BR OVC007
     FM250900 15006KT P6SM BKN015 BKN035 WS020/19030KT
     FM251300 16012KT P6SM BKN015
     FM251500 16012G20KT P6SM BKN035
     FM251700 17018G28KT P6SM BKN035
     FM252100 18018KT 3SM +RA BR OVC020=

USA.gov is the U.S. government's official web portal to all federal, state and local government web resources and services.